Time;durP1;ratioP1;P1;durP2;ratioP2;P2;SDS_P1;SDS_P2;PMS_P1;PMS_P2;Temp;Humidity;BMP_temperature;BMP_pressure;BME280_temperature;BME280_humidity;BME280_pressure;Samples;Min_cycle;Max_cycle;Signal;HPM_P1;HPM_P2
2021/05/10 00:01:07;;;;;;;7.53;5.30;;;;;;;;;;5065176;28;20181;-71
2021/05/10 00:03:33;;;;;;;6.78;5.22;;;;;;;;;;5060718;28;20923;-70
2021/05/10 00:05:58;;;;;;;6.13;5.30;;;;;;;;;;5065227;28;20220;-71
2021/05/10 00:08:25;;;;;;;5.68;5.15;;;;;;;;;;5055253;28;20541;-70
2021/05/10 00:10:51;;;;;;;5.75;5.22;;;;;;;;;;5062801;28;20173;-70
2021/05/10 00:13:18;;;;;;;6.68;5.63;;;;;;;;;;5066920;28;20201;-71
2021/05/10 00:15:43;;;;;;;6.38;5.75;;;;;;;;;;5062318;28;20545;-71
2021/05/10 00:18:08;;;;;;;6.38;5.78;;;;;;;;;;5057114;28;20173;-71
2021/05/10 00:20:35;;;;;;;7.28;5.35;;;;;;;;;;5066935;28;20183;-71
2021/05/10 00:23:01;;;;;;;5.88;5.28;;;;;;;;;;5063222;28;20289;-71
2021/05/10 00:25:26;;;;;;;6.63;6.03;;;;;;;;;;5068840;28;20749;-71
2021/05/10 00:27:52;;;;;;;6.20;5.70;;;;;;;;;;5064827;28;20216;-70
2021/05/10 00:30:18;;;;;;;8.80;5.45;;;;;;;;;;5061050;28;20178;-70
2021/05/10 00:32:43;;;;;;;7.95;5.25;;;;;;;;;;5065545;28;20251;-71
2021/05/10 00:35:09;;;;;;;8.15;5.50;;;;;;;;;;5061820;28;20193;-70
2021/05/10 00:37:34;;;;;;;6.32;5.72;;;;;;;;;;5066556;28;20222;-70
2021/05/10 00:39:59;;;;;;;6.00;5.35;;;;;;;;;;5063656;28;20184;-69
2021/05/10 00:42:24;;;;;;;7.25;6.55;;;;;;;;;;5067192;28;20710;-70
2021/05/10 00:44:49;;;;;;;8.98;6.20;;;;;;;;;;5067592;28;20183;-69
2021/05/10 00:47:15;;;;;;;7.60;5.77;;;;;;;;;;5070709;28;20737;-70
2021/05/10 00:49:41;;;;;;;7.85;6.85;;;;;;;;;;5061528;28;20946;-70
2021/05/10 00:52:06;;;;;;;7.68;6.35;;;;;;;;;;5060546;28;20240;-71
2021/05/10 00:54:31;;;;;;;7.60;6.80;;;;;;;;;;5061730;28;20216;-71
2021/05/10 00:56:56;;;;;;;8.40;7.63;;;;;;;;;;5068415;28;20452;-70
2021/05/10 00:59:22;;;;;;;8.52;7.60;;;;;;;;;;5067022;28;20186;-71
2021/05/10 01:01:47;;;;;;;8.73;7.88;;;;;;;;;;5061353;28;20690;-70
2021/05/10 01:04:12;;;;;;;9.18;7.93;;;;;;;;;;5054205;28;20610;-71
2021/05/10 01:06:37;;;;;;;8.10;7.30;;;;;;;;;;5057120;28;20185;-71
2021/05/10 01:09:03;;;;;;;8.50;7.70;;;;;;;;;;5063888;28;20528;-71
2021/05/10 01:11:28;;;;;;;8.55;7.38;;;;;;;;;;5068823;28;20429;-70
2021/05/10 01:13:54;;;;;;;8.07;7.28;;;;;;;;;;5069530;28;20173;-68
2021/05/10 01:16:19;;;;;;;11.13;7.93;;;;;;;;;;5060138;28;20196;-70
2021/05/10 01:18:45;;;;;;;9.33;7.87;;;;;;;;;;5060712;28;20949;-70
2021/05/10 01:21:11;;;;;;;8.82;8.02;;;;;;;;;;5059453;28;20815;-71
2021/05/10 01:23:36;;;;;;;8.75;7.82;;;;;;;;;;5063606;28;20176;-70
2021/05/10 01:26:01;;;;;;;13.82;8.68;;;;;;;;;;5065383;28;20259;-68
2021/05/10 01:28:26;;;;;;;9.38;8.50;;;;;;;;;;5060902;28;20282;-71
2021/05/10 01:30:52;;;;;;;11.10;9.82;;;;;;;;;;5056810;28;20189;-72
2021/05/10 01:33:21;;;;;;;10.32;9.32;;;;;;;;;;5064004;28;20204;-70
2021/05/10 01:35:47;;;;;;;11.25;10.07;;;;;;;;;;5059298;28;20185;-70
2021/05/10 01:38:14;;;;;;;13.07;11.15;;;;;;;;;;5060331;28;20195;-71
2021/05/10 01:40:39;;;;;;;12.02;10.95;;;;;;;;;;5065320;28;20289;-71
2021/05/10 01:43:05;;;;;;;11.30;10.20;;;;;;;;;;5055752;28;20709;-71
2021/05/10 01:45:30;;;;;;;13.00;11.23;;;;;;;;;;5062944;28;20686;-71
2021/05/10 01:48:00;;;;;;;12.90;11.30;;;;;;;;;;5054156;28;20189;-70
2021/05/10 01:50:25;;;;;;;13.18;10.70;;;;;;;;;;5072355;28;20263;-70
2021/05/10 01:52:51;;;;;;;13.23;11.90;;;;;;;;;;5061279;28;20303;-70
2021/05/10 01:55:16;;;;;;;13.90;12.52;;;;;;;;;;5061828;28;20185;-70
2021/05/10 01:57:46;;;;;;;15.68;13.40;;;;;;;;;;5059530;28;20202;-71
2021/05/10 02:00:13;;;;;;;13.45;12.15;;;;;;;;;;5065572;28;20180;-69
2021/05/10 02:02:38;;;;;;;15.73;13.25;;;;;;;;;;5061622;28;20649;-70
2021/05/10 02:05:04;;;;;;;17.30;14.15;;;;;;;;;;5059959;28;20269;-70
2021/05/10 02:07:30;;;;;;;15.55;14.05;;;;;;;;;;5058053;28;20208;-70
2021/05/10 02:09:55;;;;;;;17.13;15.18;;;;;;;;;;5057095;28;20213;-70
2021/05/10 02:12:20;;;;;;;16.13;14.55;;;;;;;;;;5060173;28;20215;-70
2021/05/10 02:14:45;;;;;;;16.57;13.87;;;;;;;;;;5054851;28;20224;-70
2021/05/10 02:17:10;;;;;;;15.88;14.27;;;;;;;;;;5060890;28;20961;-70
2021/05/10 02:19:36;;;;;;;14.55;13.20;;;;;;;;;;5061933;28;20212;-71
2021/05/10 02:22:01;;;;;;;17.85;14.65;;;;;;;;;;5054318;28;20596;-70
2021/05/10 02:24:26;;;;;;;16.48;14.75;;;;;;;;;;5067050;28;20191;-70
2021/05/10 02:26:51;;;;;;;17.60;15.80;;;;;;;;;;5056207;28;20705;-70
2021/05/10 02:29:16;;;;;;;17.02;15.43;;;;;;;;;;5058420;28;20185;-69
2021/05/10 02:31:41;;;;;;;16.70;15.10;;;;;;;;;;5061302;28;20671;-70
2021/05/10 02:34:07;;;;;;;20.45;15.95;;;;;;;;;;5060716;28;20437;-70
2021/05/10 02:36:32;;;;;;;17.00;15.30;;;;;;;;;;5065464;28;20231;-70
2021/05/10 02:38:57;;;;;;;17.73;15.93;;;;;;;;;;5062886;28;20251;-69
2021/05/10 02:41:22;;;;;;;19.67;16.05;;;;;;;;;;5067210;28;20454;-70
2021/05/10 02:43:47;;;;;;;17.30;15.60;;;;;;;;;;5057433;28;20186;-69
2021/05/10 02:46:12;;;;;;;16.30;14.73;;;;;;;;;;5062579;28;20432;-70
2021/05/10 02:48:38;;;;;;;17.83;15.20;;;;;;;;;;5055722;28;20464;-70
2021/05/10 02:51:03;;;;;;;16.77;15.07;;;;;;;;;;5060787;28;20413;-70
2021/05/10 02:53:28;;;;;;;18.08;16.27;;;;;;;;;;5062920;28;20437;-69
2021/05/10 02:55:53;;;;;;;16.77;15.07;;;;;;;;;;5059609;28;20750;-70
2021/05/10 02:58:18;;;;;;;17.17;15.43;;;;;;;;;;5059043;28;20173;-69
2021/05/10 03:00:44;;;;;;;18.65;16.75;;;;;;;;;;5060635;28;20422;-70
2021/05/10 03:03:09;;;;;;;17.35;15.55;;;;;;;;;;5057978;28;20197;-69
2021/05/10 03:05:34;;;;;;;18.48;16.50;;;;;;;;;;5054793;28;20430;-70
2021/05/10 03:08:01;;;;;;;18.02;15.88;;;;;;;;;;5058354;28;20689;-69
2021/05/10 03:10:26;;;;;;;18.33;16.52;;;;;;;;;;5060737;28;20173;-69
2021/05/10 03:12:53;;;;;;;17.98;16.13;;;;;;;;;;5062243;28;20193;-69
2021/05/10 03:15:19;;;;;;;17.65;15.70;;;;;;;;;;5053976;28;20185;-69
2021/05/10 03:17:44;;;;;;;18.45;15.68;;;;;;;;;;5063289;28;20692;-69
2021/05/10 03:20:13;;;;;;;19.23;16.20;;;;;;;;;;5052554;28;20170;-70
2021/05/10 03:22:38;;;;;;;17.20;15.45;;;;;;;;;;5058261;28;20258;-68
2021/05/10 03:25:04;;;;;;;16.55;14.98;;;;;;;;;;5063161;28;20178;-70
2021/05/10 03:27:39;;;;;;;18.05;16.25;;;;;;;;;;5063323;28;20222;-70
2021/05/10 03:30:04;;;;;;;18.77;16.88;;;;;;;;;;5055740;28;20212;-70
2021/05/10 03:32:29;;;;;;;16.42;14.82;;;;;;;;;;5064522;28;20224;-70
2021/05/10 03:34:54;;;;;;;16.77;15.17;;;;;;;;;;5055175;28;20185;-69
2021/05/10 03:37:20;;;;;;;16.50;14.85;;;;;;;;;;5064462;28;20540;-70
2021/05/10 03:39:45;;;;;;;16.23;14.57;;;;;;;;;;5055529;28;20185;-70
2021/05/10 03:42:10;;;;;;;14.60;13.20;;;;;;;;;;5064652;28;20532;-70
2021/05/10 03:44:35;;;;;;;13.30;12.00;;;;;;;;;;5061388;28;20185;-70
2021/05/10 03:47:00;;;;;;;12.27;10.93;;;;;;;;;;5060011;28;20429;-71
2021/05/10 03:49:26;;;;;;;14.57;10.80;;;;;;;;;;5062611;28;20177;-70
2021/05/10 03:51:51;;;;;;;11.15;10.05;;;;;;;;;;5065824;28;20326;-70
2021/05/10 03:54:16;;;;;;;11.65;10.25;;;;;;;;;;5058484;28;20186;-70
2021/05/10 03:56:41;;;;;;;10.40;9.35;;;;;;;;;;5063953;28;20287;-68
2021/05/10 03:59:06;;;;;;;9.27;8.30;;;;;;;;;;5062237;28;20181;-70
2021/05/10 04:01:31;;;;;;;8.45;7.70;;;;;;;;;;5066179;28;20988;-69
2021/05/10 04:04:24;;;;;;;8.65;7.38;;;;;;;;;;5060798;28;20235;-70
2021/05/10 04:07:14;;;;;;;7.97;7.13;;;;;;;;;;5053327;28;20605;-70
2021/05/10 04:14:58;;;;;;;6.45;5.15;;;;;;;;;;5061998;28;20184;-69
2021/05/10 04:17:23;;;;;;;5.63;4.80;;;;;;;;;;5054799;28;20201;-70
2021/05/10 04:19:48;;;;;;;4.13;3.72;;;;;;;;;;5057430;28;20174;-69
2021/05/10 04:22:13;;;;;;;4.15;3.53;;;;;;;;;;5058975;28;20313;-70
2021/05/10 04:24:38;;;;;;;3.22;2.88;;;;;;;;;;5063771;28;20178;-69
2021/05/10 04:27:05;;;;;;;4.13;2.30;;;;;;;;;;5055775;28;20674;-69
2021/05/10 04:29:30;;;;;;;4.63;2.65;;;;;;;;;;5055781;28;20215;-70
2021/05/10 04:31:55;;;;;;;4.18;2.35;;;;;;;;;;5059036;28;20262;-69
2021/05/10 04:34:20;;;;;;;2.70;1.67;;;;;;;;;;5057197;28;20366;-70
2021/05/10 04:36:45;;;;;;;4.07;2.10;;;;;;;;;;5066604;28;20204;-70
2021/05/10 04:39:10;;;;;;;3.42;1.85;;;;;;;;;;5057240;28;20480;-70
2021/05/10 04:41:36;;;;;;;10.30;2.80;;;;;;;;;;5061504;28;20575;-69
2021/05/10 04:44:01;;;;;;;2.22;1.92;;;;;;;;;;5059401;28;20423;-70
2021/05/10 04:46:26;;;;;;;2.38;1.80;;;;;;;;;;5064351;28;20177;-69
2021/05/10 04:48:51;;;;;;;4.55;2.20;;;;;;;;;;5056784;28;20694;-69
2021/05/10 04:51:16;;;;;;;3.53;2.33;;;;;;;;;;5058544;28;20324;-69
2021/05/10 04:53:42;;;;;;;4.25;2.42;;;;;;;;;;5056406;28;20185;-70
2021/05/10 04:56:07;;;;;;;5.43;3.05;;;;;;;;;;5056446;28;20216;-68
2021/05/10 04:58:33;;;;;;;4.07;2.72;;;;;;;;;;5055574;28;20258;-70
2021/05/10 05:00:58;;;;;;;4.30;2.50;;;;;;;;;;5053490;28;20181;-71
2021/05/10 05:03:23;;;;;;;3.92;2.67;;;;;;;;;;5056617;28;20180;-69
2021/05/10 05:05:49;;;;;;;2.72;2.28;;;;;;;;;;5052634;28;20252;-69
2021/05/10 05:08:14;;;;;;;2.40;1.83;;;;;;;;;;5060650;28;20600;-70
2021/05/10 05:10:39;;;;;;;3.00;2.25;;;;;;;;;;5055328;28;20429;-69
2021/05/10 05:13:04;;;;;;;5.85;2.13;;;;;;;;;;5066039;28;20213;-69
2021/05/10 05:15:30;;;;;;;1.88;1.58;;;;;;;;;;5052747;28;20185;-70
2021/05/10 05:17:55;;;;;;;3.85;1.80;;;;;;;;;;5061226;28;21751;-70
2021/05/10 05:20:21;;;;;;;7.18;2.25;;;;;;;;;;5057116;28;20173;-69
2021/05/10 05:22:46;;;;;;;1.70;1.48;;;;;;;;;;5062419;28;20202;-70
2021/05/10 05:25:11;;;;;;;2.22;1.65;;;;;;;;;;5061946;28;20177;-70
2021/05/10 05:27:37;;;;;;;2.05;1.50;;;;;;;;;;5058475;28;20319;-70
2021/05/10 05:30:05;;;;;;;1.13;1.02;;;;;;;;;;5056310;28;20197;-70
2021/05/10 05:32:31;;;;;;;1.88;1.17;;;;;;;;;;5062887;28;20681;-70
2021/05/10 05:34:56;;;;;;;3.63;1.27;;;;;;;;;;5049079;28;20186;-71
2021/05/10 05:37:22;;;;;;;2.72;1.42;;;;;;;;;;5030430;28;553064;-69
2021/05/10 05:39:47;;;;;;;2.28;1.20;;;;;;;;;;5059434;28;20694;-71
2021/05/10 05:42:12;;;;;;;3.30;1.50;;;;;;;;;;5059821;28;20193;-71
2021/05/10 05:44:38;;;;;;;2.22;1.10;;;;;;;;;;5052594;28;20272;-69
2021/05/10 05:47:04;;;;;;;1.50;0.93;;;;;;;;;;5054732;28;20677;-69
2021/05/10 05:49:34;;;;;;;2.17;1.48;;;;;;;;;;5052271;28;20182;-70
2021/05/10 05:52:02;;;;;;;3.08;1.60;;;;;;;;;;5056930;28;20206;-67
2021/05/10 05:54:27;;;;;;;3.80;1.70;;;;;;;;;;5051578;28;20565;-69
2021/05/10 05:56:55;;;;;;;2.78;1.67;;;;;;;;;;5051864;28;20189;-69
2021/05/10 05:59:20;;;;;;;2.90;1.73;;;;;;;;;;5055989;28;20186;-70
2021/05/10 06:01:47;;;;;;;3.28;1.35;;;;;;;;;;5051626;28;20553;-69
2021/05/10 06:04:12;;;;;;;3.25;2.00;;;;;;;;;;5053466;28;20264;-70
2021/05/10 06:06:37;;;;;;;2.37;1.60;;;;;;;;;;5059219;28;20260;-69
2021/05/10 06:09:06;;;;;;;1.90;1.70;;;;;;;;;;5059280;28;20462;-71
2021/05/10 06:11:32;;;;;;;1.60;1.38;;;;;;;;;;5062771;28;20234;-69
2021/05/10 06:13:57;;;;;;;2.42;1.77;;;;;;;;;;5052739;28;20199;-69
2021/05/10 06:16:25;;;;;;;2.13;1.23;;;;;;;;;;5054744;28;20202;-68
2021/05/10 06:18:50;;;;;;;2.15;1.42;;;;;;;;;;5063132;28;20427;-69
2021/05/10 06:21:16;;;;;;;3.38;1.83;;;;;;;;;;5059078;28;20531;-69
2021/05/10 06:23:41;;;;;;;2.80;1.23;;;;;;;;;;5056006;28;20185;-68
2021/05/10 06:26:07;;;;;;;1.50;1.13;;;;;;;;;;5064966;28;20312;-70
2021/05/10 06:28:32;;;;;;;1.33;1.23;;;;;;;;;;5059931;28;20173;-69
2021/05/10 06:30:57;;;;;;;3.05;1.70;;;;;;;;;;5061551;28;20166;-68
2021/05/10 06:33:23;;;;;;;1.58;1.33;;;;;;;;;;5056490;28;20189;-69
2021/05/10 06:35:48;;;;;;;2.20;1.60;;;;;;;;;;5055140;28;20180;-69
2021/05/10 06:38:13;;;;;;;1.87;1.40;;;;;;;;;;5051626;28;20469;-71
2021/05/10 06:40:39;;;;;;;4.72;1.70;;;;;;;;;;5048776;28;20429;-71
2021/05/10 06:43:04;;;;;;;1.63;1.40;;;;;;;;;;5060684;28;20332;-69
2021/05/10 06:45:29;;;;;;;1.50;1.40;;;;;;;;;;5050982;28;20203;-70
2021/05/10 06:47:54;;;;;;;2.08;1.40;;;;;;;;;;5053932;28;20178;-69
2021/05/10 06:50:19;;;;;;;2.75;1.38;;;;;;;;;;5053397;28;20200;-71
2021/05/10 06:52:45;;;;;;;1.60;1.50;;;;;;;;;;5054801;28;20197;-70
2021/05/10 06:55:10;;;;;;;4.45;1.70;;;;;;;;;;5060346;28;20192;-70
2021/05/10 06:57:35;;;;;;;2.15;1.88;;;;;;;;;;5057635;28;20193;-71
2021/05/10 07:00:01;;;;;;;3.13;2.63;;;;;;;;;;5065634;28;20169;-70
2021/05/10 07:02:26;;;;;;;2.63;1.98;;;;;;;;;;5058161;28;20958;-70
2021/05/10 07:04:52;;;;;;;2.17;1.80;;;;;;;;;;5060770;28;20686;-69
2021/05/10 07:07:17;;;;;;;2.70;1.80;;;;;;;;;;5059774;28;20186;-71
2021/05/10 07:09:43;;;;;;;2.08;1.65;;;;;;;;;;5061990;28;20177;-70
2021/05/10 07:12:11;;;;;;;4.43;2.53;;;;;;;;;;5058624;28;20204;-70
2021/05/10 07:14:36;;;;;;;2.35;2.00;;;;;;;;;;5056098;28;20611;-70
2021/05/10 07:17:01;;;;;;;2.00;1.70;;;;;;;;;;5064005;28;20239;-71
2021/05/10 07:19:26;;;;;;;4.22;2.25;;;;;;;;;;5062567;28;20256;-70
2021/05/10 07:21:52;;;;;;;3.22;2.38;;;;;;;;;;5057521;28;20208;-70
2021/05/10 07:24:18;;;;;;;5.90;2.35;;;;;;;;;;5053901;28;20178;-70
2021/05/10 07:26:43;;;;;;;2.30;2.10;;;;;;;;;;5058940;28;20269;-70
2021/05/10 07:29:08;;;;;;;5.38;3.15;;;;;;;;;;5057646;28;20259;-70
2021/05/10 07:31:33;;;;;;;2.78;2.33;;;;;;;;;;5062474;28;20201;-70
2021/05/10 07:33:59;;;;;;;5.47;3.95;;;;;;;;;;5063254;28;20632;-70
2021/05/10 07:36:24;;;;;;;3.63;2.20;;;;;;;;;;5056482;28;20205;-71
2021/05/10 07:38:49;;;;;;;2.50;2.30;;;;;;;;;;5060934;28;20181;-70
2021/05/10 07:41:14;;;;;;;4.95;2.95;;;;;;;;;;5064235;28;20165;-69
2021/05/10 07:43:39;;;;;;;2.53;2.33;;;;;;;;;;5061054;28;20162;-70
2021/05/10 07:46:05;;;;;;;2.92;2.63;;;;;;;;;;5057824;28;20530;-70
2021/05/10 07:48:30;;;;;;;2.20;1.98;;;;;;;;;;5063312;28;20177;-70
2021/05/10 07:50:55;;;;;;;6.75;3.13;;;;;;;;;;5064014;28;20627;-70
2021/05/10 07:53:21;;;;;;;2.55;2.33;;;;;;;;;;5065512;28;20711;-70
2021/05/10 07:55:46;;;;;;;3.45;1.95;;;;;;;;;;5054596;28;20194;-71
2021/05/10 07:58:12;;;;;;;9.30;3.65;;;;;;;;;;5055207;28;20258;-72
2021/05/10 08:00:39;;;;;;;1.88;1.50;;;;;;;;;;5050329;28;20173;-72
2021/05/10 08:03:09;;;;;;;2.60;2.00;;;;;;;;;;5063848;28;20224;-70
2021/05/10 08:05:35;;;;;;;3.85;1.90;;;;;;;;;;5054407;28;20169;-70
2021/05/10 08:08:00;;;;;;;1.77;1.67;;;;;;;;;;5046159;28;20250;-69
2021/05/10 08:10:25;;;;;;;1.63;1.45;;;;;;;;;;5063029;28;20181;-71
2021/05/10 08:12:51;;;;;;;2.17;1.77;;;;;;;;;;5064553;28;20692;-70
2021/05/10 08:15:19;;;;;;;2.83;1.63;;;;;;;;;;5058352;28;20224;-70
2021/05/10 08:17:44;;;;;;;3.33;1.45;;;;;;;;;;5063066;28;20250;-70
2021/05/10 08:20:10;;;;;;;1.60;1.30;;;;;;;;;;5059473;28;20190;-70
2021/05/10 08:22:35;;;;;;;3.03;1.60;;;;;;;;;;5057520;28;20193;-71
2021/05/10 08:25:00;;;;;;;2.70;1.50;;;;;;;;;;5060958;28;20181;-71
2021/05/10 08:27:26;;;;;;;1.70;1.60;;;;;;;;;;5060249;28;20665;-70
2021/05/10 08:29:51;;;;;;;7.68;2.75;;;;;;;;;;5063231;28;20181;-70
2021/05/10 08:32:16;;;;;;;1.98;1.70;;;;;;;;;;5072830;28;20286;-71
2021/05/10 08:34:41;;;;;;;2.35;1.65;;;;;;;;;;5060392;28;20181;-70
2021/05/10 08:37:07;;;;;;;4.22;1.70;;;;;;;;;;5068103;28;20200;-71
2021/05/10 08:39:32;;;;;;;2.78;1.60;;;;;;;;;;5059705;28;20181;-70
2021/05/10 08:41:57;;;;;;;3.45;1.58;;;;;;;;;;5065212;28;20297;-70
2021/05/10 08:44:22;;;;;;;2.72;1.70;;;;;;;;;;5047695;28;20219;-70
2021/05/10 08:46:48;;;;;;;4.90;1.95;;;;;;;;;;5058371;28;20178;-71
2021/05/10 08:49:18;;;;;;;3.25;1.77;;;;;;;;;;5056439;28;20736;-71
2021/05/10 08:51:43;;;;;;;2.63;1.80;;;;;;;;;;5060670;28;20306;-70
2021/05/10 08:54:25;;;;;;;4.00;2.45;;;;;;;;;;5062890;28;20701;-69
2021/05/10 08:56:50;;;;;;;4.25;1.80;;;;;;;;;;5053022;28;20208;-71
2021/05/10 08:59:17;;;;;;;3.75;1.98;;;;;;;;;;5056265;28;20185;-70
2021/05/10 09:01:46;;;;;;;2.53;1.63;;;;;;;;;;5063956;28;20230;-70
2021/05/10 09:04:12;;;;;;;2.72;1.83;;;;;;;;;;5060781;28;20299;-70
2021/05/10 09:06:37;;;;;;;2.08;1.50;;;;;;;;;;5057844;28;20439;-70
2021/05/10 09:09:09;;;;;;;2.63;1.40;;;;;;;;;;5063591;28;20176;-70
2021/05/10 09:11:35;;;;;;;2.00;1.35;;;;;;;;;;5055515;28;20573;-70
2021/05/10 09:14:01;;;;;;;2.97;1.27;;;;;;;;;;5063909;28;20637;-71
2021/05/10 09:16:26;;;;;;;3.15;1.38;;;;;;;;;;5063508;28;20212;-70
2021/05/10 09:18:52;;;;;;;1.58;1.13;;;;;;;;;;5063815;28;20176;-71
2021/05/10 09:21:21;;;;;;;2.88;1.40;;;;;;;;;;5067268;28;20889;-69
2021/05/10 09:23:47;;;;;;;2.58;1.23;;;;;;;;;;5057919;28;20168;-68
2021/05/10 09:26:12;;;;;;;3.38;1.30;;;;;;;;;;5053084;28;20205;-70
2021/05/10 09:28:47;;;;;;;2.47;1.30;;;;;;;;;;5064606;28;20173;-70
2021/05/10 09:31:12;;;;;;;3.40;1.67;;;;;;;;;;5062743;28;20175;-70
2021/05/10 09:33:41;;;;;;;2.70;1.67;;;;;;;;;;5062260;28;20252;-70
2021/05/10 09:36:07;;;;;;;8.77;2.35;;;;;;;;;;5061460;28;20537;-69
2021/05/10 09:38:36;;;;;;;3.33;2.17;;;;;;;;;;5066444;28;20181;-70
2021/05/10 09:41:03;;;;;;;4.63;4.00;;;;;;;;;;5064194;28;20181;-70
2021/05/10 09:43:29;;;;;;;5.03;3.85;;;;;;;;;;5054441;28;20181;-67
2021/05/10 09:45:55;;;;;;;5.07;4.57;;;;;;;;;;5051610;28;20563;-69
2021/05/10 09:48:26;;;;;;;5.07;4.57;;;;;;;;;;5056654;28;20654;-71
2021/05/10 09:51:00;;;;;;;5.30;4.80;;;;;;;;;;5063646;28;20182;-70
2021/05/10 09:53:33;;;;;;;5.47;4.32;;;;;;;;;;5057786;28;20195;-70
2021/05/10 09:55:58;;;;;;;5.07;4.57;;;;;;;;;;5060451;28;20667;-69
2021/05/10 09:58:24;;;;;;;4.82;4.43;;;;;;;;;;5059028;28;20283;-70
2021/05/10 10:00:54;;;;;;;5.32;4.28;;;;;;;;;;5058745;28;20166;-71
2021/05/10 10:03:34;;;;;;;7.05;5.10;;;;;;;;;;5051929;28;20365;-70
2021/05/10 10:06:02;;;;;;;8.48;5.60;;;;;;;;;;5052631;28;20185;-68
2021/05/10 10:08:27;;;;;;;5.55;4.57;;;;;;;;;;5060768;28;20196;-68
2021/05/10 10:10:52;;;;;;;5.82;5.22;;;;;;;;;;5055253;28;20255;-70
2021/05/10 10:13:18;;;;;;;6.10;5.43;;;;;;;;;;5063221;28;20216;-71
2021/05/10 10:15:43;;;;;;;5.43;4.90;;;;;;;;;;5057697;28;20181;-70
2021/05/10 10:18:09;;;;;;;8.45;5.63;;;;;;;;;;5054500;28;20221;-71
2021/05/10 10:20:36;;;;;;;5.60;4.70;;;;;;;;;;5055798;28;20695;-70
2021/05/10 10:23:02;;;;;;;7.32;5.10;;;;;;;;;;5061940;28;20193;-70
2021/05/10 10:25:27;;;;;;;5.75;5.22;;;;;;;;;;5048928;28;20216;-70
2021/05/10 10:27:54;;;;;;;6.03;4.95;;;;;;;;;;5052582;28;20204;-71
2021/05/10 10:30:20;;;;;;;6.07;5.10;;;;;;;;;;5052426;28;20180;-69
2021/05/10 10:32:46;;;;;;;5.63;4.80;;;;;;;;;;5055245;28;20550;-70
2021/05/10 10:35:14;;;;;;;7.25;5.43;;;;;;;;;;5054050;28;20189;-69
2021/05/10 10:37:39;;;;;;;6.90;4.32;;;;;;;;;;5059482;28;20590;-70
2021/05/10 10:40:14;;;;;;;4.80;3.50;;;;;;;;;;5052200;28;20184;-70
2021/05/10 10:42:39;;;;;;;4.25;3.25;;;;;;;;;;5056471;28;20213;-70
2021/05/10 10:45:05;;;;;;;6.28;3.60;;;;;;;;;;5061816;28;20772;-70
2021/05/10 10:47:59;;;;;;;6.45;4.63;;;;;;;;;;5062487;28;20204;-69
2021/05/10 10:50:25;;;;;;;5.88;4.55;;;;;;;;;;5055783;28;20177;-70
2021/05/10 10:52:50;;;;;;;5.22;4.60;;;;;;;;;;5061923;28;20209;-70
2021/05/10 10:55:27;;;;;;;4.63;3.75;;;;;;;;;;5055333;28;20173;-70
2021/05/10 10:57:53;;;;;;;6.45;4.05;;;;;;;;;;5059436;28;20205;-70
2021/05/10 11:00:19;;;;;;;3.88;3.47;;;;;;;;;;5057603;28;20675;-70
2021/05/10 11:02:45;;;;;;;4.38;3.30;;;;;;;;;;5062829;28;20220;-72
2021/05/10 11:05:10;;;;;;;4.88;3.20;;;;;;;;;;5055588;28;20165;-68
2021/05/10 11:07:58;;;;;;;3.33;2.90;;;;;;;;;;5054849;28;20684;-71
2021/05/10 11:10:42;;;;;;;2.67;2.30;;;;;;;;;;5061895;28;20172;-70
2021/05/10 11:13:08;;;;;;;3.22;2.20;;;;;;;;;;5054085;28;20214;-70
2021/05/10 11:15:37;;;;;;;4.68;2.40;;;;;;;;;;5055164;28;20170;-70
2021/05/10 11:18:03;;;;;;;3.72;2.20;;;;;;;;;;5059711;28;20257;-69
2021/05/10 11:20:38;;;;;;;2.95;2.45;;;;;;;;;;5057639;28;20568;-70
2021/05/10 11:23:21;;;;;;;4.97;2.60;;;;;;;;;;5063175;28;20232;-69
2021/05/10 11:25:46;;;;;;;3.85;2.40;;;;;;;;;;5062820;28;20731;-70
2021/05/10 11:28:24;;;;;;;2.35;2.08;;;;;;;;;;5055169;28;20189;-70
2021/05/10 11:30:55;;;;;;;3.35;2.45;;;;;;;;;;5056639;28;20179;-68
2021/05/10 11:33:40;;;;;;;5.00;2.60;;;;;;;;;;5054098;28;20204;-68
2021/05/10 11:36:05;;;;;;;5.28;2.60;;;;;;;;;;5059557;28;20607;-70
2021/05/10 11:38:30;;;;;;;3.83;2.60;;;;;;;;;;5057394;28;20247;-68
2021/05/10 11:40:55;;;;;;;4.97;3.03;;;;;;;;;;5059847;28;20185;-69
2021/05/10 11:43:21;;;;;;;5.28;3.38;;;;;;;;;;5061081;28;20543;-69
2021/05/10 11:45:46;;;;;;;3.10;2.78;;;;;;;;;;5055482;28;20577;-69
2021/05/10 11:48:11;;;;;;;4.80;3.13;;;;;;;;;;5056010;28;20185;-70
2021/05/10 11:50:46;;;;;;;4.15;3.05;;;;;;;;;;5054951;28;20753;-69
2021/05/10 11:53:15;;;;;;;4.93;2.97;;;;;;;;;;5057830;28;20196;-69
2021/05/10 11:55:54;;;;;;;3.58;3.00;;;;;;;;;;5057513;28;20243;-68
2021/05/10 11:59:24;;;;;;;4.68;3.40;;;;;;;;;;5056409;28;20250;-70
2021/05/10 12:01:33;;;;;;;4.68;3.50;;;;;;;;;;5065676;28;20266;-71
2021/05/10 12:03:59;;;;;;;6.10;3.55;;;;;;;;;;5060300;28;20184;-69
2021/05/10 12:06:27;;;;;;;4.95;3.33;;;;;;;;;;5056942;28;20260;-68
2021/05/10 12:08:53;;;;;;;7.38;3.75;;;;;;;;;;5056526;28;20667;-70
2021/05/10 12:11:22;;;;;;;7.25;3.70;;;;;;;;;;5059440;28;20247;-70
2021/05/10 12:13:47;;;;;;;6.53;3.20;;;;;;;;;;5053614;28;20276;-70
2021/05/10 12:16:12;;;;;;;4.97;3.80;;;;;;;;;;5063868;28;20298;-69
2021/05/10 12:18:40;;;;;;;5.07;4.13;;;;;;;;;;5068058;28;20950;-70
2021/05/10 12:21:15;;;;;;;5.75;3.97;;;;;;;;;;5058949;28;20423;-70
2021/05/10 12:23:40;;;;;;;5.93;4.50;;;;;;;;;;5063406;28;20716;-70
2021/05/10 12:26:11;;;;;;;4.80;4.35;;;;;;;;;;5060131;28;20178;-69
2021/05/10 12:28:37;;;;;;;5.30;4.60;;;;;;;;;;5061476;28;20223;-69
2021/05/10 12:31:02;;;;;;;6.45;4.18;;;;;;;;;;5061942;28;20177;-69
2021/05/10 12:33:28;;;;;;;5.40;3.33;;;;;;;;;;5057023;28;20181;-69
2021/05/10 12:35:54;;;;;;;4.88;3.60;;;;;;;;;;5055143;28;20257;-68
2021/05/10 12:38:26;;;;;;;7.33;3.07;;;;;;;;;;5065862;28;20283;-69
2021/05/10 12:40:52;;;;;;;4.13;3.08;;;;;;;;;;5057385;28;20794;-70
2021/05/10 12:43:17;;;;;;;4.95;3.28;;;;;;;;;;5058912;28;20284;-69
2021/05/10 12:46:00;;;;;;;4.13;3.42;;;;;;;;;;5057193;28;20176;-70
2021/05/10 12:48:26;;;;;;;5.18;3.13;;;;;;;;;;5059953;28;20658;-69
2021/05/10 12:50:55;;;;;;;4.70;2.97;;;;;;;;;;5059957;28;20223;-70
2021/05/10 12:53:29;;;;;;;5.55;3.60;;;;;;;;;;5054760;28;20188;-68
2021/05/10 12:55:59;;;;;;;4.65;2.92;;;;;;;;;;5059222;28;20174;-69
2021/05/10 12:58:24;;;;;;;6.28;3.63;;;;;;;;;;5059981;28;20206;-70
2021/05/10 13:00:53;;;;;;;5.82;3.47;;;;;;;;;;5064051;28;20188;-69
2021/05/10 13:03:28;;;;;;;3.38;2.63;;;;;;;;;;5057886;28;20700;-68
2021/05/10 13:05:54;;;;;;;5.00;2.67;;;;;;;;;;5057827;28;20177;-70
2021/05/10 13:08:39;;;;;;;4.45;3.50;;;;;;;;;;5058949;28;20186;-69
2021/05/10 13:11:04;;;;;;;8.15;3.58;;;;;;;;;;5066037;28;20282;-69
2021/05/10 13:13:36;;;;;;;4.65;3.95;;;;;;;;;;5060056;28;20632;-69
2021/05/10 13:16:16;;;;;;;5.07;2.95;;;;;;;;;;5062515;28;20582;-69
2021/05/10 13:18:54;;;;;;;5.10;3.20;;;;;;;;;;5061009;28;20239;-68
2021/05/10 13:27:34;;;;;;;4.53;2.80;;;;;;;;;;5057904;28;20203;-70
2021/05/10 13:31:00;;;;;;;5.28;2.70;;;;;;;;;;5056225;28;20557;-69
2021/05/10 13:32:59;;;;;;;4.80;2.45;;;;;;;;;;5064615;28;20216;-69
2021/05/10 13:35:36;;;;;;;6.10;2.90;;;;;;;;;;5060690;28;20184;-69
2021/05/10 13:38:03;;;;;;;6.72;3.10;;;;;;;;;;5055586;28;20266;-69
2021/05/10 13:40:28;;;;;;;5.95;3.05;;;;;;;;;;5062256;28;20170;-69
2021/05/10 13:42:58;;;;;;;3.43;2.83;;;;;;;;;;5067829;28;20613;-70
2021/05/10 13:45:23;;;;;;;5.10;2.90;;;;;;;;;;5062214;28;20494;-69
2021/05/10 13:47:48;;;;;;;6.10;3.63;;;;;;;;;;5067010;28;20665;-69
2021/05/10 13:50:13;;;;;;;5.60;3.77;;;;;;;;;;5063360;28;20441;-69
2021/05/10 13:52:39;;;;;;;5.30;2.63;;;;;;;;;;5065316;28;20537;-70
2021/05/10 13:55:04;;;;;;;5.55;2.90;;;;;;;;;;5061029;28;20508;-70
2021/05/10 13:57:29;;;;;;;5.47;2.58;;;;;;;;;;5056000;28;20193;-69
2021/05/10 13:59:57;;;;;;;8.60;3.13;;;;;;;;;;5063818;28;20169;-70
2021/05/10 14:02:22;;;;;;;9.68;4.68;;;;;;;;;;5058973;28;20442;-69
2021/05/10 14:04:47;;;;;;;9.90;5.03;;;;;;;;;;5056503;28;20176;-69
2021/05/10 14:07:12;;;;;;;13.10;5.70;;;;;;;;;;5057064;28;20847;-70
2021/05/10 14:09:37;;;;;;;7.40;4.57;;;;;;;;;;5064615;28;20459;-70
2021/05/10 14:12:03;;;;;;;11.47;5.10;;;;;;;;;;5061349;28;20271;-70
2021/05/10 14:14:29;;;;;;;7.75;3.65;;;;;;;;;;5065368;28;20500;-70
2021/05/10 14:16:54;;;;;;;10.95;4.45;;;;;;;;;;5059903;28;20620;-70
2021/05/10 14:19:21;;;;;;;13.50;4.10;;;;;;;;;;5055926;28;20177;-69
2021/05/10 14:21:58;;;;;;;8.93;4.05;;;;;;;;;;5061740;28;20438;-70
2021/05/10 14:24:23;;;;;;;12.85;4.05;;;;;;;;;;5065429;28;20204;-68
2021/05/10 14:26:48;;;;;;;8.50;3.73;;;;;;;;;;5063105;28;20213;-69
2021/05/10 14:29:14;;;;;;;12.20;3.85;;;;;;;;;;5054875;28;20439;-68
2021/05/10 14:31:40;;;;;;;9.70;2.88;;;;;;;;;;5055433;28;20192;-69
2021/05/10 14:34:05;;;;;;;7.32;3.42;;;;;;;;;;5067101;28;20646;-69
2021/05/10 14:36:32;;;;;;;6.30;2.13;;;;;;;;;;5063854;28;20223;-69
2021/05/10 14:38:58;;;;;;;3.83;1.42;;;;;;;;;;5065130;28;20169;-68
2021/05/10 14:41:23;;;;;;;3.57;1.37;;;;;;;;;;5059652;28;20254;-69
2021/05/10 14:43:48;;;;;;;3.03;1.20;;;;;;;;;;5055598;28;20434;-68
2021/05/10 14:46:13;;;;;;;2.22;1.10;;;;;;;;;;5053704;28;20430;-69
2021/05/10 14:48:39;;;;;;;5.50;2.20;;;;;;;;;;5057011;28;20192;-69